Time;durP1;ratioP1;P1;durP2;ratioP2;P2;SDS_P1;SDS_P2;PMS_P1;PMS_P2;Temp;Humidity;BMP_temperature;BMP_pressure;BME280_temperature;BME280_humidity;BME280_pressure;Samples;Min_cycle;Max_cycle;Signal;HPM_P1;HPM_P2
2022/01/15 00:01:45;;;;;;;46.45;23.92;;;6.50;99.90;;;;;;5115403;27;20090;-74
2022/01/15 00:04:11;;;;;;;47.13;23.27;;;6.50;99.90;;;;;;5134035;27;20550;-74
2022/01/15 00:06:37;;;;;;;46.17;23.52;;;6.50;99.90;;;;;;5134548;27;20039;-74
2022/01/15 00:09:04;;;;;;;43.63;23.00;;;6.50;99.90;;;;;;5166525;27;20047;-74
2022/01/15 00:11:30;;;;;;;46.85;23.58;;;6.50;99.90;;;;;;5135177;27;20039;-75
2022/01/15 00:14:09;;;;;;;46.33;23.23;;;6.50;99.90;;;;;;5134208;27;20099;-75
2022/01/15 00:16:45;;;;;;;50.58;24.35;;;6.50;99.90;;;;;;5135347;27;20066;-74
2022/01/15 00:19:14;;;;;;;48.42;23.45;;;6.50;99.90;;;;;;5129167;27;20047;-75
2022/01/15 00:21:40;;;;;;;51.80;24.42;;;6.50;99.90;;;;;;5133142;27;20051;-75
2022/01/15 00:24:06;;;;;;;50.40;25.05;;;6.50;99.90;;;;;;5113132;27;20043;-74
2022/01/15 00:26:33;;;;;;;57.22;25.10;;;6.50;99.90;;;;;;5130332;27;20039;-74
2022/01/15 00:29:00;;;;;;;55.83;24.50;;;6.40;99.90;;;;;;5114248;28;20058;-73
2022/01/15 00:31:26;;;;;;;53.13;25.05;;;6.40;99.90;;;;;;5114107;28;20126;-74
2022/01/15 00:33:52;;;;;;;50.08;25.35;;;6.40;99.90;;;;;;5113229;28;20051;-75
2022/01/15 00:36:19;;;;;;;48.10;24.42;;;6.50;99.90;;;;;;5126527;27;20112;-74
2022/01/15 00:38:45;;;;;;;54.72;25.52;;;6.40;99.90;;;;;;5133752;27;20403;-75
2022/01/15 00:41:12;;;;;;;53.92;25.30;;;6.40;99.90;;;;;;5133645;27;20096;-74
2022/01/15 00:43:37;;;;;;;47.80;25.13;;;6.40;99.90;;;;;;5116369;27;20066;-75
2022/01/15 00:46:03;;;;;;;52.50;25.00;;;6.40;99.90;;;;;;5119717;27;20114;-71
2022/01/15 00:48:29;;;;;;;50.75;24.27;;;6.40;99.90;;;;;;5127296;27;20039;-75
2022/01/15 00:50:55;;;;;;;54.63;25.63;;;6.40;99.90;;;;;;5134293;27;20042;-75
2022/01/15 00:53:20;;;;;;;54.63;25.38;;;6.40;99.90;;;;;;5119116;27;20051;-74
2022/01/15 00:55:46;;;;;;;62.58;26.40;;;6.40;99.90;;;;;;5129553;27;20035;-75
2022/01/15 00:58:13;;;;;;;50.58;24.23;;;6.40;99.90;;;;;;5132063;27;20043;-75
2022/01/15 01:00:39;;;;;;;55.28;25.60;;;6.40;99.90;;;;;;5134404;27;20134;-75
2022/01/15 01:03:05;;;;;;;52.80;25.10;;;6.40;99.90;;;;;;5121922;27;20118;-71
2022/01/15 01:05:31;;;;;;;54.30;25.67;;;6.40;99.90;;;;;;5113447;28;20446;-75
2022/01/15 01:07:57;;;;;;;50.08;24.00;;;6.40;99.90;;;;;;5125890;27;20047;-75
2022/01/15 01:13:32;;;;;;;55.40;24.90;;;6.40;99.90;;;;;;5122837;27;20594;-73
2022/01/15 01:24:11;;;;;;;50.80;24.33;;;6.30;99.90;;;;;;5133004;27;20054;-74
2022/01/15 01:26:48;;;;;;;58.00;25.02;;;6.40;99.90;;;;;;5133719;27;20471;-74
2022/01/15 01:31:53;;;;;;;49.63;23.83;;;6.40;99.90;;;;;;5133555;27;20107;-74
2022/01/15 01:34:20;;;;;;;48.90;23.25;;;6.30;99.90;;;;;;5112528;28;20484;-74
2022/01/15 01:39:17;;;;;;;49.47;23.13;;;6.30;99.90;;;;;;5131143;27;20081;-70
2022/01/15 01:41:53;;;;;;;48.80;23.10;;;6.30;99.90;;;;;;5132835;27;20062;-74
2022/01/15 01:44:26;;;;;;;53.28;24.45;;;6.40;99.90;;;;;;5133104;27;20385;-73
2022/01/15 01:47:02;;;;;;;42.95;22.70;;;6.40;99.90;;;;;;5131129;27;20143;-74
2022/01/15 01:49:28;;;;;;;50.20;23.52;;;6.30;99.90;;;;;;5120220;28;20039;-74
2022/01/15 01:51:54;;;;;;;49.05;22.33;;;6.40;99.90;;;;;;5132822;27;20073;-74
2022/01/15 01:54:19;;;;;;;46.60;23.30;;;6.40;99.90;;;;;;5132666;27;20088;-74
2022/01/15 01:56:47;;;;;;;50.40;23.77;;;6.40;99.90;;;;;;5128349;28;20036;-74
2022/01/15 01:59:14;;;;;;;46.28;22.95;;;6.40;99.90;;;;;;5131801;28;20115;-70
2022/01/15 02:01:40;;;;;;;52.75;22.83;;;6.40;99.90;;;;;;5128758;28;20051;-74
2022/01/15 02:04:06;;;;;;;47.70;21.90;;;6.30;99.90;;;;;;5122776;28;20055;-74
2022/01/15 02:06:34;;;;;;;50.67;23.25;;;6.30;99.90;;;;;;5130081;28;20035;-74
2022/01/15 02:09:01;;;;;;;48.03;23.02;;;6.30;99.90;;;;;;5112809;28;20500;-74
2022/01/15 02:11:27;;;;;;;54.80;24.13;;;6.30;99.90;;;;;;5112501;28;20058;-73
2022/01/15 02:13:53;;;;;;;51.80;23.38;;;6.30;99.90;;;;;;5133537;27;20047;-74
2022/01/15 02:16:18;;;;;;;50.67;23.13;;;6.30;99.90;;;;;;5136147;27;20039;-73
2022/01/15 02:18:44;;;;;;;62.17;24.02;;;6.30;99.90;;;;;;5133310;27;20039;-74
2022/01/15 02:23:44;;;;;;;46.22;21.15;;;6.30;99.90;;;;;;5117272;27;20056;-74
2022/01/15 02:26:16;;;;;;;45.38;21.67;;;6.30;99.90;;;;;;5136316;27;20043;-74
2022/01/15 02:28:45;;;;;;;40.90;20.75;;;6.30;99.90;;;;;;5136334;27;20035;-74
2022/01/15 02:31:15;;;;;;;46.35;22.33;;;6.30;99.90;;;;;;5134980;27;20111;-74
2022/01/15 02:33:44;;;;;;;38.10;19.75;;;6.30;99.90;;;;;;5134582;27;20047;-74
2022/01/15 02:36:14;;;;;;;35.72;19.67;;;6.30;99.90;;;;;;5135834;27;20040;-73
2022/01/15 02:38:41;;;;;;;48.47;21.08;;;6.30;99.90;;;;;;5116804;27;20504;-74
2022/01/15 02:41:07;;;;;;;48.70;21.65;;;6.30;99.90;;;;;;5116234;27;20056;-73
2022/01/15 02:43:34;;;;;;;44.15;21.23;;;6.30;99.90;;;;;;5136251;27;20559;-74
2022/01/15 02:46:35;;;;;;;41.72;21.25;;;6.30;99.90;;;;;;5136495;27;20079;-74
2022/01/15 02:49:04;;;;;;;45.03;21.48;;;6.30;99.90;;;;;;5117462;27;20412;-74
2022/01/15 02:51:35;;;;;;;46.30;20.88;;;6.30;99.90;;;;;;5117611;27;20079;-74
2022/01/15 02:54:03;;;;;;;49.50;21.77;;;6.30;99.90;;;;;;5136791;27;20039;-74
2022/01/15 02:56:41;;;;;;;48.92;22.00;;;6.30;99.90;;;;;;5133276;27;20035;-73
2022/01/15 02:59:21;;;;;;;47.47;22.23;;;6.30;99.90;;;;;;5136291;27;20100;-74
2022/01/15 03:01:49;;;;;;;47.30;22.63;;;6.30;99.90;;;;;;5136286;27;20113;-74
2022/01/15 03:04:16;;;;;;;49.70;23.23;;;6.30;99.90;;;;;;5135986;27;20416;-74
2022/01/15 03:06:41;;;;;;;42.63;22.77;;;6.30;99.90;;;;;;5135131;27;20039;-74
2022/01/15 03:09:08;;;;;;;49.13;22.73;;;6.20;99.90;;;;;;5136038;27;20146;-73
2022/01/15 03:11:33;;;;;;;52.03;22.55;;;6.20;99.90;;;;;;5134987;27;20051;-73
2022/01/15 03:14:01;;;;;;;57.35;23.60;;;6.20;99.90;;;;;;5116422;27;20050;-74
2022/01/15 03:16:27;;;;;;;49.00;22.23;;;6.20;99.90;;;;;;5116010;27;20047;-73
2022/01/15 03:18:52;;;;;;;50.67;23.27;;;6.30;99.90;;;;;;5115716;28;20481;-74
2022/01/15 03:21:18;;;;;;;48.72;23.38;;;6.20;99.90;;;;;;5115654;28;20131;-73
2022/01/15 03:23:44;;;;;;;47.05;22.05;;;6.20;99.90;;;;;;5146788;27;20048;-74
2022/01/15 03:26:13;;;;;;;44.15;22.52;;;6.30;99.90;;;;;;5130961;27;20035;-74
2022/01/15 03:28:39;;;;;;;44.00;21.42;;;6.20;99.90;;;;;;5116503;27;20069;-74
2022/01/15 03:31:05;;;;;;;40.10;21.45;;;6.20;99.90;;;;;;5115510;28;20160;-74
2022/01/15 03:33:31;;;;;;;45.60;21.20;;;6.20;99.90;;;;;;5127628;27;20503;-74
2022/01/15 03:35:57;;;;;;;43.65;20.95;;;6.20;99.90;;;;;;5130146;27;20125;-74
2022/01/15 03:38:23;;;;;;;43.25;20.80;;;6.20;99.90;;;;;;5116345;27;20051;-74
2022/01/15 03:40:51;;;;;;;40.22;20.20;;;6.20;99.90;;;;;;5124030;27;20035;-74
2022/01/15 03:43:17;;;;;;;43.47;21.23;;;6.20;99.90;;;;;;5135775;27;20479;-74
2022/01/15 03:45:43;;;;;;;40.60;20.77;;;6.20;99.90;;;;;;5130759;27;20089;-74
2022/01/15 03:48:09;;;;;;;35.63;18.73;;;6.20;99.90;;;;;;5121828;27;20403;-74
2022/01/15 03:50:34;;;;;;;37.03;18.25;;;6.20;99.90;;;;;;5132441;27;20035;-74
2022/01/15 03:53:00;;;;;;;34.20;17.23;;;6.20;99.90;;;;;;5114980;28;20047;-74
2022/01/15 03:55:26;;;;;;;32.90;16.58;;;6.20;99.90;;;;;;5117101;27;20043;-70
2022/01/15 03:57:52;;;;;;;28.52;16.17;;;6.20;99.90;;;;;;5133545;27;20039;-73
2022/01/15 04:00:24;;;;;;;29.00;15.55;;;6.20;99.90;;;;;;5135393;27;20035;-74
2022/01/15 04:02:50;;;;;;;30.65;16.00;;;6.20;99.90;;;;;;5124018;27;20509;-74
2022/01/15 04:05:16;;;;;;;30.85;15.40;;;6.20;99.90;;;;;;5114753;28;20072;-74
2022/01/15 04:07:42;;;;;;;29.15;15.73;;;6.20;99.90;;;;;;5123090;27;20039;-73
2022/01/15 04:10:10;;;;;;;29.40;15.00;;;6.20;99.90;;;;;;5135218;27;20050;-74
2022/01/15 04:12:36;;;;;;;28.60;15.68;;;6.20;99.90;;;;;;5130993;27;20103;-73
2022/01/15 04:15:03;;;;;;;27.48;16.00;;;6.20;99.90;;;;;;5114623;27;20130;-74
2022/01/15 04:17:28;;;;;;;32.50;16.13;;;6.20;99.90;;;;;;5120383;27;20047;-72
2022/01/15 04:19:55;;;;;;;35.97;17.80;;;6.10;99.90;;;;;;5116096;27;20070;-74
2022/01/15 04:22:22;;;;;;;35.22;17.23;;;6.20;99.90;;;;;;5151888;27;20035;-74
2022/01/15 04:24:47;;;;;;;38.47;18.40;;;6.10;99.90;;;;;;5134305;27;20043;-74
2022/01/15 04:27:13;;;;;;;35.42;18.50;;;6.20;99.90;;;;;;5134158;27;20040;-74
2022/01/15 04:29:39;;;;;;;33.97;18.08;;;6.20;99.90;;;;;;5133798;27;20043;-74
2022/01/15 04:32:05;;;;;;;35.58;18.17;;;6.20;99.90;;;;;;5130957;27;20047;-73
2022/01/15 04:34:31;;;;;;;35.88;18.05;;;6.20;99.90;;;;;;5114111;28;20083;-74
2022/01/15 04:37:09;;;;;;;33.88;18.08;;;6.20;99.90;;;;;;5116108;28;20114;-74
2022/01/15 04:39:35;;;;;;;34.97;18.23;;;6.10;99.90;;;;;;5132559;27;20445;-71
2022/01/15 04:42:00;;;;;;;35.03;17.98;;;6.20;99.90;;;;;;5133793;27;20047;-74
2022/01/15 04:44:26;;;;;;;28.58;16.58;;;6.10;99.90;;;;;;5134520;27;20399;-73
2022/01/15 04:46:52;;;;;;;22.25;12.52;;;6.20;99.90;;;;;;5133156;27;20043;-74
2022/01/15 04:49:19;;;;;;;21.52;12.38;;;6.10;99.90;;;;;;5113929;28;20079;-74
2022/01/15 04:51:44;;;;;;;20.88;11.95;;;6.20;99.90;;;;;;5113169;28;20062;-73
2022/01/15 04:54:10;;;;;;;16.27;10.75;;;6.10;99.90;;;;;;5133966;27;20039;-73
2022/01/15 04:56:36;;;;;;;19.38;11.40;;;6.10;99.90;;;;;;5132678;27;20130;-71
2022/01/15 04:59:02;;;;;;;20.58;12.25;;;6.10;99.90;;;;;;5132528;27;20074;-73
2022/01/15 05:01:28;;;;;;;24.33;13.45;;;6.10;99.90;;;;;;5132524;27;20086;-73
2022/01/15 05:03:54;;;;;;;21.55;13.07;;;6.10;99.90;;;;;;5114131;27;20043;-74
2022/01/15 05:06:20;;;;;;;24.65;14.05;;;6.10;99.90;;;;;;5113569;28;20036;-74
2022/01/15 05:08:46;;;;;;;24.10;14.10;;;6.10;99.90;;;;;;5131314;27;20062;-74
2022/01/15 05:11:20;;;;;;;23.80;14.38;;;6.00;99.90;;;;;;5134077;27;20039;-74
2022/01/15 05:13:46;;;;;;;23.83;13.90;;;6.10;99.90;;;;;;5130926;27;20175;-74
2022/01/15 05:16:12;;;;;;;23.17;13.75;;;6.00;99.90;;;;;;5133965;27;20504;-74
2022/01/15 05:18:37;;;;;;;25.85;14.65;;;6.00;99.90;;;;;;5117121;27;20039;-70
2022/01/15 05:21:03;;;;;;;24.42;14.15;;;6.00;99.90;;;;;;5113110;28;20044;-74
2022/01/15 05:23:29;;;;;;;21.08;12.73;;;6.00;99.90;;;;;;5118169;27;20164;-74
2022/01/15 05:25:54;;;;;;;19.92;12.50;;;6.00;99.90;;;;;;5133271;27;20046;-74
2022/01/15 05:28:20;;;;;;;21.65;12.90;;;6.00;99.90;;;;;;5131649;27;20135;-74
2022/01/15 05:30:46;;;;;;;22.70;13.27;;;6.00;99.90;;;;;;5133323;27;20043;-74
2022/01/15 05:33:12;;;;;;;21.45;13.43;;;6.00;99.90;;;;;;5122769;27;20426;-74
2022/01/15 05:35:37;;;;;;;22.65;13.95;;;6.00;99.90;;;;;;5112812;28;20122;-74
2022/01/15 05:38:03;;;;;;;25.17;14.10;;;6.00;99.90;;;;;;5121080;27;20047;-74
2022/01/15 05:40:29;;;;;;;26.70;14.52;;;5.90;99.90;;;;;;5133318;27;20043;-74
2022/01/15 05:42:54;;;;;;;26.52;14.82;;;6.00;99.90;;;;;;5129503;27;20047;-74
2022/01/15 05:45:24;;;;;;;23.38;13.75;;;6.00;99.90;;;;;;5129240;27;20051;-74
2022/01/15 05:47:50;;;;;;;25.20;14.02;;;5.90;99.90;;;;;;5116573;28;20441;-74
2022/01/15 05:50:16;;;;;;;26.95;14.35;;;6.00;99.90;;;;;;5132223;27;20419;-74
2022/01/15 05:52:42;;;;;;;24.98;14.32;;;6.00;99.90;;;;;;5129418;27;20035;-70
2022/01/15 05:55:08;;;;;;;25.58;14.50;;;6.00;99.90;;;;;;5121450;28;20039;-74
2022/01/15 05:57:33;;;;;;;23.70;14.02;;;5.90;99.90;;;;;;5132754;27;20051;-74
2022/01/15 05:59:59;;;;;;;21.27;12.95;;;5.90;99.90;;;;;;5132852;28;20468;-74
2022/01/15 06:02:25;;;;;;;24.65;12.45;;;5.90;99.90;;;;;;5123844;28;20488;-74
2022/01/15 06:04:51;;;;;;;20.80;12.65;;;5.90;99.90;;;;;;5112349;28;20109;-73
2022/01/15 06:07:17;;;;;;;20.55;12.45;;;5.90;99.90;;;;;;5120054;28;20039;-74
2022/01/15 06:09:42;;;;;;;19.40;11.75;;;5.90;99.90;;;;;;5132148;27;20494;-74
2022/01/15 06:12:09;;;;;;;22.42;13.43;;;5.90;99.90;;;;;;5131956;28;20450;-74
2022/01/15 06:14:35;;;;;;;24.35;14.55;;;5.90;99.90;;;;;;5132161;28;20107;-74
2022/01/15 06:17:03;;;;;;;25.52;14.85;;;5.90;99.90;;;;;;5130727;27;20039;-74
2022/01/15 06:19:29;;;;;;;23.75;14.15;;;5.90;99.90;;;;;;5131538;27;20492;-74
2022/01/15 06:21:56;;;;;;;27.58;14.90;;;5.90;99.90;;;;;;5130331;27;20043;-74
2022/01/15 06:24:22;;;;;;;31.50;16.77;;;5.90;99.90;;;;;;5130089;28;20054;-74
2022/01/15 06:26:48;;;;;;;33.65;17.80;;;5.90;99.90;;;;;;5130749;28;20039;-70
2022/01/15 06:29:14;;;;;;;29.80;16.70;;;5.90;99.90;;;;;;5112971;27;20480;-75
2022/01/15 06:31:40;;;;;;;31.20;16.83;;;5.80;99.90;;;;;;5111535;28;20048;-75
2022/01/15 06:34:05;;;;;;;32.03;17.08;;;5.90;99.90;;;;;;5131206;28;20054;-74
2022/01/15 06:36:31;;;;;;;29.17;16.60;;;5.90;99.90;;;;;;5131424;28;20525;-74
2022/01/15 06:38:57;;;;;;;30.55;17.23;;;5.90;99.90;;;;;;5129747;28;20053;-74
2022/01/15 06:41:22;;;;;;;27.15;16.25;;;5.90;99.90;;;;;;5132278;28;20078;-73
2022/01/15 06:43:48;;;;;;;34.45;17.10;;;5.80;99.90;;;;;;5132250;28;20096;-71
2022/01/15 06:46:14;;;;;;;31.13;17.25;;;5.90;99.90;;;;;;5132962;28;20050;-74
2022/01/15 06:48:39;;;;;;;29.48;16.20;;;5.90;99.90;;;;;;5114320;27;20053;-75
2022/01/15 06:51:05;;;;;;;27.23;14.95;;;5.80;99.90;;;;;;5111816;28;20477;-74
2022/01/15 06:53:31;;;;;;;26.55;14.93;;;5.90;99.90;;;;;;5128819;28;20073;-75
2022/01/15 06:55:57;;;;;;;27.90;15.02;;;5.80;99.90;;;;;;5132384;28;20486;-74
2022/01/15 06:58:23;;;;;;;28.38;15.18;;;5.80;99.90;;;;;;5131883;27;20043;-74
2022/01/15 07:00:49;;;;;;;25.35;14.65;;;5.90;99.90;;;;;;5133449;27;20047;-75
2022/01/15 07:03:15;;;;;;;27.02;15.63;;;5.80;99.90;;;;;;5129915;27;20039;-74
2022/01/15 07:05:41;;;;;;;25.42;15.65;;;5.80;99.90;;;;;;5136525;27;20620;-75
2022/01/15 07:08:07;;;;;;;21.92;13.20;;;5.80;99.90;;;;;;5123923;27;20036;-74
2022/01/15 07:10:33;;;;;;;23.55;14.02;;;5.80;99.90;;;;;;5115947;28;20074;-75
2022/01/15 07:12:59;;;;;;;24.33;14.60;;;5.80;99.90;;;;;;5124662;27;20046;-74
2022/01/15 07:15:25;;;;;;;23.70;14.20;;;5.80;99.90;;;;;;5136221;27;20043;-75
2022/01/15 07:17:51;;;;;;;23.85;14.40;;;5.80;99.90;;;;;;5128187;27;20423;-75
2022/01/15 07:20:19;;;;;;;23.52;13.93;;;5.80;99.90;;;;;;5120462;27;20381;-75
2022/01/15 07:22:44;;;;;;;21.92;13.38;;;5.80;99.90;;;;;;5124322;27;20108;-75
2022/01/15 07:25:11;;;;;;;21.30;13.95;;;5.80;99.90;;;;;;5113973;28;20484;-75
2022/01/15 07:27:38;;;;;;;22.42;14.18;;;5.70;99.90;;;;;;5118074;27;20043;-75
2022/01/15 07:30:06;;;;;;;25.25;15.18;;;5.80;99.90;;;;;;5135488;27;20093;-75
2022/01/15 07:32:32;;;;;;;26.40;15.27;;;5.70;99.90;;;;;;5133026;27;20043;-75
2022/01/15 07:34:58;;;;;;;27.05;16.05;;;5.70;99.90;;;;;;5125935;27;20550;-71
2022/01/15 07:37:24;;;;;;;22.50;13.95;;;5.70;99.90;;;;;;5117449;27;20065;-75
2022/01/15 07:39:50;;;;;;;26.05;15.70;;;5.70;99.90;;;;;;5127598;27;20110;-75
2022/01/15 07:42:16;;;;;;;26.50;15.95;;;5.70;99.90;;;;;;5117342;27;20055;-78
2022/01/15 07:44:42;;;;;;;23.15;14.30;;;5.70;99.90;;;;;;5130944;27;20085;-77
2022/01/15 07:47:08;;;;;;;20.52;13.57;;;5.70;99.90;;;;;;5124636;27;20078;-77
2022/01/15 07:49:34;;;;;;;21.02;14.13;;;5.60;99.90;;;;;;5127552;27;20046;-75
2022/01/15 07:52:01;;;;;;;21.10;13.93;;;5.70;99.90;;;;;;5117535;27;20122;-75
2022/01/15 07:54:27;;;;;;;20.50;12.93;;;5.60;99.90;;;;;;5114727;28;20480;-78
2022/01/15 07:56:56;;;;;;;17.02;11.45;;;5.60;99.90;;;;;;5114533;28;20441;-78
2022/01/15 07:59:22;;;;;;;16.80;12.15;;;5.60;99.90;;;;;;5119652;27;20046;-78
2022/01/15 08:01:48;;;;;;;16.60;12.05;;;5.60;99.90;;;;;;5135388;27;20043;-78
2022/01/15 08:04:13;;;;;;;18.85;13.38;;;5.60;99.90;;;;;;5134475;27;20099;-78
2022/01/15 08:06:41;;;;;;;17.90;12.45;;;5.60;99.90;;;;;;5135290;27;20031;-78
2022/01/15 08:09:07;;;;;;;18.00;12.02;;;5.60;99.90;;;;;;5134765;27;20404;-78
2022/01/15 08:11:33;;;;;;;22.35;14.45;;;5.60;99.90;;;;;;5134549;27;20043;-79
2022/01/15 08:13:59;;;;;;;24.95;15.35;;;5.60;99.90;;;;;;5134896;27;20448;-79
2022/01/15 08:16:25;;;;;;;24.23;14.95;;;5.50;99.90;;;;;;5134756;27;20054;-79
2022/01/15 08:18:50;;;;;;;23.38;15.20;;;5.60;99.90;;;;;;5135122;27;20047;-79
2022/01/15 08:21:16;;;;;;;27.23;17.50;;;5.50;99.90;;;;;;5134057;27;20412;-78
2022/01/15 08:23:42;;;;;;;27.67;17.65;;;5.50;99.90;;;;;;5134913;27;20039;-79
2022/01/15 08:26:08;;;;;;;27.33;18.45;;;5.60;99.90;;;;;;5134334;27;20042;-79
2022/01/15 08:28:37;;;;;;;27.38;17.38;;;5.60;99.90;;;;;;5134799;27;20133;-78
2022/01/15 08:31:06;;;;;;;26.27;17.05;;;5.60;99.90;;;;;;5126480;27;20046;-72
2022/01/15 08:33:33;;;;;;;22.50;14.93;;;5.50;99.90;;;;;;5122688;27;20448;-78
2022/01/15 08:35:59;;;;;;;21.63;14.98;;;5.50;99.90;;;;;;5118261;27;20044;-78
2022/01/15 08:38:25;;;;;;;19.10;13.68;;;5.50;99.90;;;;;;5121213;27;20295;-77
2022/01/15 08:40:51;;;;;;;17.65;13.15;;;5.50;99.90;;;;;;5133218;27;20495;-78
2022/01/15 08:43:17;;;;;;;18.63;13.32;;;5.50;99.90;;;;;;5133337;27;20047;-77
2022/01/15 08:45:43;;;;;;;16.40;12.18;;;5.50;99.90;;;;;;5134102;27;20046;-78
2022/01/15 08:48:10;;;;;;;16.35;11.98;;;5.50;99.90;;;;;;5132878;27;20061;-76
2022/01/15 08:50:36;;;;;;;16.02;11.77;;;5.50;99.90;;;;;;5132761;27;20043;-78
2022/01/15 08:53:06;;;;;;;14.55;11.50;;;5.50;99.90;;;;;;5133874;27;20387;-78
2022/01/15 08:55:33;;;;;;;15.38;11.98;;;5.50;99.90;;;;;;5133112;27;20551;-78
2022/01/15 08:57:59;;;;;;;14.50;11.35;;;5.50;99.90;;;;;;5132380;27;20499;-78
2022/01/15 09:00:27;;;;;;;15.60;12.25;;;5.50;99.90;;;;;;5133555;27;20467;-78
2022/01/15 09:02:55;;;;;;;15.50;13.07;;;5.50;99.90;;;;;;5125072;27;20114;-78
2022/01/15 09:05:22;;;;;;;18.58;14.05;;;5.50;99.90;;;;;;5129513;27;20035;-78
2022/01/15 09:07:48;;;;;;;18.30;14.48;;;5.50;99.90;;;;;;5131338;27;20046;-78
2022/01/15 09:10:14;;;;;;;18.23;14.82;;;5.50;99.90;;;;;;5132851;27;20046;-78
2022/01/15 09:12:40;;;;;;;19.33;15.25;;;5.50;99.90;;;;;;5133076;27;20050;-71
2022/01/15 09:15:06;;;;;;;18.13;15.40;;;5.50;99.90;;;;;;5125096;27;20039;-72
2022/01/15 09:17:32;;;;;;;21.20;16.58;;;5.50;99.90;;;;;;5126374;27;20403;-78
2022/01/15 09:19:58;;;;;;;20.90;16.92;;;5.50;99.90;;;;;;5120110;27;20064;-78
2022/01/15 09:22:24;;;;;;;19.40;15.82;;;5.40;99.90;;;;;;5111436;27;20380;-76
2022/01/15 09:24:49;;;;;;;18.77;15.48;;;5.40;99.90;;;;;;5128661;27;20058;-72
2022/01/15 09:30:12;;;;;;;21.17;17.10;;;5.40;99.90;;;;;;5128512;27;20070;-77
2022/01/15 09:32:58;;;;;;;22.75;18.00;;;5.40;99.90;;;;;;5129391;27;20043;-75
2022/01/15 09:35:26;;;;;;;24.70;18.75;;;5.50;99.90;;;;;;5112824;27;20040;-78
2022/01/15 09:37:52;;;;;;;25.05;19.20;;;5.50;99.90;;;;;;5116636;28;20408;-77
2022/01/15 09:40:19;;;;;;;25.88;19.85;;;5.50;99.90;;;;;;5126295;27;20039;-77
2022/01/15 09:42:47;;;;;;;25.85;19.63;;;5.50;99.90;;;;;;5117443;27;20408;-77
2022/01/15 09:45:14;;;;;;;27.27;19.60;;;5.50;99.90;;;;;;5132920;27;20047;-71
2022/01/15 09:47:40;;;;;;;24.80;19.92;;;5.50;99.90;;;;;;5142089;27;20407;-77
2022/01/15 09:50:13;;;;;;;26.13;20.08;;;5.40;99.90;;;;;;5150228;27;20407;-78
2022/01/15 09:52:39;;;;;;;25.40;18.98;;;5.50;99.90;;;;;;5141878;27;20100;-74
2022/01/15 09:55:10;;;;;;;23.30;18.50;;;5.50;99.90;;;;;;5141185;27;20398;-74
2022/01/15 09:57:38;;;;;;;21.45;17.17;;;5.50;99.90;;;;;;5134321;27;20079;-75
2022/01/15 10:00:15;;;;;;;20.77;17.63;;;5.50;99.90;;;;;;5133592;27;20061;-74
2022/01/15 10:02:43;;;;;;;23.52;18.92;;;5.50;99.90;;;;;;5153633;27;20051;-74
2022/01/15 10:05:10;;;;;;;28.90;21.00;;;5.50;99.90;;;;;;5152367;27;20049;-74
2022/01/15 10:07:35;;;;;;;25.73;20.27;;;5.40;99.90;;;;;;5139168;27;20110;-74
2022/01/15 10:10:20;;;;;;;27.85;20.98;;;5.40;99.90;;;;;;5133466;27;20146;-74
2022/01/15 10:12:46;;;;;;;27.63;20.70;;;5.50;99.90;;;;;;5133627;27;20047;-74
2022/01/15 10:15:12;;;;;;;27.10;20.23;;;5.50;99.90;;;;;;5133283;27;20503;-74
2022/01/15 10:17:39;;;;;;;26.33;19.73;;;5.50;99.90;;;;;;5140665;27;20505;-74
2022/01/15 10:20:09;;;;;;;25.92;19.92;;;5.50;99.90;;;;;;5152743;27;20077;-74
2022/01/15 10:22:40;;;;;;;27.02;21.15;;;5.50;99.90;;;;;;5152074;27;20035;-74
2022/01/15 10:25:14;;;;;;;26.45;19.70;;;5.50;99.90;;;;;;5147753;27;20446;-74
2022/01/15 10:27:44;;;;;;;26.42;20.80;;;5.40;99.90;;;;;;5147369;27;20050;-74
2022/01/15 10:30:13;;;;;;;29.05;21.67;;;5.40;99.90;;;;;;5145024;27;20490;-74
2022/01/15 10:32:54;;;;;;;26.95;19.92;;;5.50;99.90;;;;;;5132606;27;20156;-74
2022/01/15 10:35:22;;;;;;;28.60;20.95;;;5.40;99.90;;;;;;5134063;27;20031;-70
2022/01/15 10:37:53;;;;;;;29.23;20.98;;;5.40;99.90;;;;;;5137050;27;20092;-74
2022/01/15 10:40:25;;;;;;;30.30;21.48;;;5.40;99.90;;;;;;5136521;27;20509;-70
2022/01/15 10:42:57;;;;;;;29.08;21.20;;;5.40;99.90;;;;;;5147228;27;20375;-74
2022/01/15 10:45:25;;;;;;;26.02;19.88;;;5.40;99.90;;;;;;5136300;27;20075;-72
2022/01/15 10:47:55;;;;;;;28.17;20.42;;;5.40;99.90;;;;;;5136855;27;20047;-74
2022/01/15 10:50:29;;;;;;;27.38;20.63;;;5.40;99.90;;;;;;5150974;27;20122;-71
2022/01/15 10:52:57;;;;;;;27.42;20.92;;;5.40;99.90;;;;;;5157594;27;20038;-74
2022/01/15 10:55:28;;;;;;;29.10;22.00;;;5.50;99.90;;;;;;5145237;27;20046;-72
2022/01/15 10:58:11;;;;;;;30.13;22.15;;;5.40;99.90;;;;;;5156583;27;20039;-74
2022/01/15 11:00:38;;;;;;;24.90;19.00;;;5.40;99.90;;;;;;5156940;27;20108;-74
2022/01/15 11:03:09;;;;;;;26.80;19.13;;;5.40;99.90;;;;;;5157263;27;20047;-74
2022/01/15 11:05:36;;;;;;;;;;;5.40;99.90;;;;;;5155390;27;20091;-74
2022/01/15 11:08:26;;;;;;;25.90;19.85;;;5.30;99.90;;;;;;5157200;27;19925;-74
2022/01/15 11:10:56;;;;;;;26.10;19.67;;;5.40;99.90;;;;;;5157458;27;20372;-74
2022/01/15 11:13:30;;;;;;;25.95;20.48;;;5.40;99.90;;;;;;5156191;27;20046;-74
2022/01/15 11:16:00;;;;;;;27.38;20.02;;;5.30;99.90;;;;;;5147487;27;20054;-74
2022/01/15 11:18:29;;;;;;;25.83;20.27;;;5.30;99.90;;;;;;5135808;27;20047;-70
2022/01/15 11:20:58;;;;;;;27.45;19.88;;;5.30;99.90;;;;;;5136149;27;20484;-75
2022/01/15 11:23:28;;;;;;;23.98;19.38;;;5.30;99.90;;;;;;5136218;27;20438;-75
2022/01/15 11:25:57;;;;;;;25.58;19.08;;;5.30;99.90;;;;;;5136375;27;20043;-74
2022/01/15 11:28:25;;;;;;;25.95;20.75;;;5.30;99.90;;;;;;5114607;28;20418;-74
2022/01/15 11:31:06;;;;;;;26.40;20.42;;;5.30;99.90;;;;;;5115167;28;20058;-74
2022/01/15 11:33:47;;;;;;;24.10;20.35;;;5.40;99.90;;;;;;5114954;28;20036;-74
2022/01/15 11:36:40;;;;;;;25.65;20.23;;;5.40;99.90;;;;;;5115383;28;20080;-74
2022/01/15 11:39:11;;;;;;;24.48;19.77;;;5.40;99.90;;;;;;5115647;28;20045;-74
2022/01/15 11:41:42;;;;;;;22.67;18.60;;;5.40;99.90;;;;;;5114661;28;20052;-74
2022/01/15 11:44:09;;;;;;;;;;;5.40;99.90;;;;;;5115931;28;20051;-74
2022/01/15 11:46:52;;;;;;;23.05;17.88;;;5.30;99.90;;;;;;5130529;27;19972;-74
2022/01/15 11:49:23;;;;;;;22.98;19.48;;;5.30;99.90;;;;;;5141080;27;20035;-74
2022/01/15 11:52:10;;;;;;;22.88;19.25;;;5.30;99.90;;;;;;5138879;27;20110;-75
2022/01/15 11:54:38;;;;;;;25.98;20.63;;;5.40;99.90;;;;;;5124323;27;20050;-74
2022/01/15 11:57:19;;;;;;;21.88;19.42;;;5.30;99.90;;;;;;5135486;27;20108;-77
2022/01/15 11:59:46;;;;;;;;;;;5.30;99.90;;;;;;5152070;27;20423;-77
2022/01/15 12:02:24;;;;;;;27.05;21.15;;;5.20;99.90;;;;;;5154745;27;19919;-77
2022/01/15 12:04:50;;;;;;;25.60;21.08;;;5.20;99.90;;;;;;5154661;27;20053;-77
2022/01/15 12:07:16;;;;;;;26.80;20.90;;;5.20;99.90;;;;;;5156327;27;20046;-77
2022/01/15 12:09:44;;;;;;;25.58;20.73;;;5.20;99.90;;;;;;5155391;27;20054;-76
2022/01/15 12:12:19;;;;;;;25.52;20.73;;;5.20;99.90;;;;;;5156257;27;20054;-77
2022/01/15 12:15:01;;;;;;;24.10;20.70;;;5.30;99.90;;;;;;5151404;27;20059;-77
2022/01/15 12:17:32;;;;;;;27.17;22.17;;;5.30;99.90;;;;;;5156166;27;20045;-77
2022/01/15 12:20:27;;;;;;;27.02;20.83;;;5.30;99.90;;;;;;5135527;27;20047;-77
2022/01/15 12:22:58;;;;;;;24.80;20.58;;;5.30;99.90;;;;;;5126052;27;20052;-76
2022/01/15 12:25:26;;;;;;;24.75;20.15;;;5.30;99.90;;;;;;5115305;27;20430;-77
2022/01/15 12:28:25;;;;;;;24.23;20.55;;;5.30;99.90;;;;;;5133770;27;20513;-77
2022/01/15 12:30:56;;;;;;;24.80;21.88;;;5.30;99.90;;;;;;5126051;27;20144;-78
2022/01/15 12:33:22;;;;;;;26.73;21.52;;;5.40;99.90;;;;;;5129605;27;20054;-79
2022/01/15 12:35:53;;;;;;;25.45;21.05;;;5.40;99.90;;;;;;5127986;27;20027;-80
2022/01/15 12:38:26;;;;;;;24.73;20.67;;;5.40;99.90;;;;;;5126396;27;20111;-78
2022/01/15 12:41:06;;;;;;;24.83;20.90;;;5.40;99.90;;;;;;5117996;27;20040;-80
2022/01/15 12:43:32;;;;;;;25.63;20.13;;;5.40;99.90;;;;;;5128619;27;20051;-77
2022/01/15 12:46:02;;;;;;;24.95;20.38;;;5.30;99.90;;;;;;5128696;27;20040;-79
2022/01/15 12:48:31;;;;;;;25.08;20.55;;;5.30;99.90;;;;;;5125076;27;20051;-76
2022/01/15 12:51:01;;;;;;;23.05;20.08;;;5.30;99.90;;;;;;5124226;27;20043;-79
2022/01/15 12:53:50;;;;;;;23.23;19.58;;;5.30;99.90;;;;;;5128409;27;20047;-78
2022/01/15 12:56:18;;;;;;;25.20;21.35;;;5.30;99.90;;;;;;5131636;27;20050;-79
2022/01/15 12:58:44;;;;;;;25.10;21.23;;;5.30;99.90;;;;;;5111210;27;20043;-79
2022/01/15 13:01:12;;;;;;;25.75;21.40;;;5.30;99.90;;;;;;5118614;27;20058;-79
2022/01/15 13:03:40;;;;;;;25.98;21.40;;;5.30;99.90;;;;;;5114043;27;20058;-74
2022/01/15 13:06:07;;;;;;;28.08;23.58;;;5.30;99.90;;;;;;5114488;27;20502;-75